Αναφορές Αεροδρομίων

 

KSJC - San Jose, California, USA
Distance from station: ΒΑ 14km
Ενημερώθηκε: 26/02/2021 14:53
Αίθριος
Αίθριος
 Ανεμος από ΝΝΑ
Ανεμος: ΝΝΑ 6 km/h
Θερμοκρασία: 6°C
Σημείο Δρόσου: 1°C
Υγρασία: 71%
Βαρόμετρο: 1022.4 hPa
Clouds: Αίθριος
Visibility: 16 km
2021/02/26 12:53 KSJC 261253Z AUTO 16003KT 10SM CLR 06/01 A3019 RMK AO2 SLP223 T00610006 $
KNUQ - Moffett Nas/Mtn, California, USA
Distance from station: Β 14km
Ενημερώθηκε: 26/02/2021 15:15
Αίθριος
Αίθριος
 Ανεμος από calm
Ανεμος: Απνοια
Θερμοκρασία: 6°C
Σημείο Δρόσου: 2°C
Υγρασία: 76%
Βαρόμετρο: 1022.4 hPa
Clouds: Αίθριος
Visibility: 16 km
2021/02/26 13:15 KNUQ 261315Z AUTO 00000KT 10SM CLR 06/02 A3019 RMK AO2
 
KPAO - Palo Alto, California, USA
Distance from station: ΒΒΔ 23km
Ενημερώθηκε: 26/02/2021 06:47
NOT Current

 
Visibility: 0 km
2021/02/26 04:47 KPAO 260447Z 0000KT 10SM SKC 10/04 A3020 RMK LAST
KRHV - San Jose/Reid, California, USA
Distance from station: ΑΒΑ 19km
Ενημερώθηκε: 26/02/2021 07:47
NOT Current
Αίθριος
Αίθριος
 Ανεμος από calm
Ανεμος: Απνοια
Θερμοκρασία: 10°C
Σημείο Δρόσου: 0°C
Υγρασία: 50%
Βαρόμετρο: 1022.7 hPa
Clouds: Αίθριος
Visibility: 16 km
2021/02/26 05:47 KRHV 260547Z 00000KT 10SM SKC 10/00 A3020 RMK LAST
 
KOAK - Oakland, California, USA
Distance from station: ΒΒΔ 50km
Ενημερώθηκε: 26/02/2021 14:53
Αίθριος
Αίθριος
 Ανεμος από ΒΑ
Ανεμος: ΒΑ 7 km/h
Θερμοκρασία: 7°C
Wind Chill: 6°C
Σημείο Δρόσου: 4°C
Υγρασία: 81%
Βαρόμετρο: 1022.7 hPa
Clouds: Αίθριος
Visibility: 16 km
2021/02/26 12:53 KOAK 261253Z 05004KT 10SM CLR 07/04 A3020 RMK AO2 SLP227 T00670039
KSQL - San Carlos Airpo, California, USA
Distance from station: ΒΔ 34km
Ενημερώθηκε: 26/02/2021 15:15
Αίθριος
Αίθριος
 Ανεμος από calm
Ανεμος: Απνοια
Θερμοκρασία: 7°C
Σημείο Δρόσου: 4°C
Υγρασία: 81%
Βαρόμετρο: 1022.7 hPa
Clouds: Αίθριος
Visibility: 16 km
2021/02/26 13:15 KSQL 261315Z AUTO 00000KT 10SM CLR 07/04 A3020 RMK AO2
 
KSFO - San Francisco, California, USA
Distance from station: ΒΔ 49km
Ενημερώθηκε: 26/02/2021 14:56
Αίθριος
Αίθριος
 Ανεμος από Δ
Ανεμος: Δ 15 km/h
Θερμοκρασία: 9°C
Wind Chill: 7°C
Σημείο Δρόσου: 6°C
Υγρασία: 82%
Βαρόμετρο: 1022.4 hPa
Clouds: Αίθριος
Visibility: 16 km
2021/02/26 12:56 KSFO 261256Z 28008KT 10SM CLR 09/06 A3019 RMK AO2 SLP223 T00940061
KE16 - San Martin, California, USA
Distance from station: ΑΝΑ 43km
Ενημερώθηκε: 26/02/2021 15:15
Few Clouds
Few Clouds
 Ανεμος από calm
Ανεμος: Απνοια
Θερμοκρασία: 2°C
Σημείο Δρόσου: -2°C
Υγρασία: 75%
Βαρόμετρο: 1022.7 hPa
Clouds: Few Clouds
Visibility: 16 km
Cloud details: Few Clouds 671 m
Few Clouds 1128 m
2021/02/26 13:15 KE16 261315Z AUTO 00000KT 10SM FEW022 FEW037 02/M02 A3020 RMK AO2
 
KWVI - Watsonville, California, USA
Distance from station: ΝΝΑ 44km
Ενημερώθηκε: 26/02/2021 14:53
Αίθριος
Αίθριος
 Ανεμος από calm
Ανεμος: Απνοια
Θερμοκρασία: 4°C
Σημείο Δρόσου: -1°C
Υγρασία: 70%
Βαρόμετρο: 1022 hPa
Clouds: Αίθριος
Visibility: 16 km
2021/02/26 12:53 KWVI 261253Z AUTO 00000KT 10SM CLR 04/M01 A3018 RMK AO2 SLP220 T00391006
KHAF - Half Moon Bay, California, USA
Distance from station: ΔΒΔ 50km
Ενημερώθηκε: 26/02/2021 15:15
Mist, Αίθριος
Mist, Αίθριος
 Ανεμος από ΒΒΑ
Ανεμος: ΒΒΑ 7 km/h
Θερμοκρασία: 8°C
Wind Chill: 7°C
Σημείο Δρόσου: 5°C
Υγρασία: 82%
Βαρόμετρο: 1022.7 hPa
Περίληψη: Mist
Clouds: Αίθριος
Visibility: 6 km
2021/02/26 13:15 KHAF 261315Z AUTO 02004KT 4SM BR CLR 08/05 A3020 RMK AO2
 
KHWD - Hayward, California, USA
Distance from station: Β 44km
Ενημερώθηκε: 26/02/2021 14:54
Αίθριος
Αίθριος
 Ανεμος από ΑΒΑ
Ανεμος: ΑΒΑ 6 km/h
Θερμοκρασία: 6°C
Σημείο Δρόσου: 3°C
Υγρασία: 81%
Βαρόμετρο: 1022.4 hPa
Clouds: Αίθριος
Visibility: 16 km
2021/02/26 12:54 KHWD 261254Z 06003KT 10SM CLR 06/03 A3019 RMK AO2 SLP233 T00560028
KLVK - Livermore, California, USA
Distance from station: ΒΒΑ 51km
Ενημερώθηκε: 26/02/2021 14:53
Αίθριος
Αίθριος
 Ανεμος από calm
Ανεμος: Απνοια
Θερμοκρασία: 2°C
Σημείο Δρόσου: -3°C
Υγρασία: 70%
Βαρόμετρο: 1022 hPa
Clouds: Αίθριος
Visibility: 16 km
2021/02/26 12:53 KLVK 261253Z AUTO 00000KT 10SM CLR 02/M03 A3018 RMK AO2 SLP220 T00221028